Time;durP1;ratioP1;P1;durP2;ratioP2;P2;SDS_P1;SDS_P2;PMS_P1;PMS_P2;Temp;Humidity;BMP_temperature;BMP_pressure;BME280_temperature;BME280_humidity;BME280_pressure;Samples;Min_cycle;Max_cycle;Signal;HPM_P1;HPM_P2
2022/03/08 00:01:33;;;;;;;12.20;7.90;;;-1.90;99.90;;;;;;5073686;28;20111;-53
2022/03/08 00:03:59;;;;;;;10.90;7.60;;;-1.90;99.90;;;;;;5072920;28;20028;-54
2022/03/08 00:06:26;;;;;;;12.35;8.25;;;-1.90;99.90;;;;;;5080468;28;20032;-52
2022/03/08 00:08:52;;;;;;;11.57;7.68;;;-1.90;99.90;;;;;;5073052;28;20462;-53
2022/03/08 00:11:17;;;;;;;12.10;7.55;;;-1.90;99.90;;;;;;5071621;28;20043;-53
2022/03/08 00:13:44;;;;;;;12.05;7.13;;;-1.90;99.90;;;;;;5072351;28;20025;-53
2022/03/08 00:16:09;;;;;;;11.43;7.38;;;-2.00;99.90;;;;;;5071576;28;20060;-50
2022/03/08 00:18:38;;;;;;;10.20;7.38;;;-2.00;99.90;;;;;;5071761;28;20028;-54
2022/03/08 00:21:05;;;;;;;12.35;7.35;;;-2.00;99.90;;;;;;5071423;28;20028;-52
2022/03/08 00:23:31;;;;;;;9.82;7.93;;;-2.00;99.90;;;;;;5072023;28;20033;-55
2022/03/08 00:25:59;;;;;;;10.52;7.05;;;-2.00;99.90;;;;;;5071529;28;20027;-52
2022/03/08 00:28:26;;;;;;;11.10;7.30;;;-2.10;99.90;;;;;;5052253;28;20036;-51
2022/03/08 00:30:51;;;;;;;13.02;7.82;;;-2.10;99.90;;;;;;5069722;28;20043;-54
2022/03/08 00:33:17;;;;;;;10.25;7.57;;;-2.10;99.90;;;;;;5070519;28;20637;-54
2022/03/08 00:35:43;;;;;;;15.18;8.48;;;-2.10;99.90;;;;;;5070123;28;20034;-50
2022/03/08 00:38:09;;;;;;;15.20;7.70;;;-2.10;99.90;;;;;;5069155;28;20512;-54
2022/03/08 00:40:35;;;;;;;14.93;8.60;;;-2.10;99.90;;;;;;5059790;28;20035;-51
2022/03/08 00:43:00;;;;;;;16.50;7.90;;;-2.20;99.90;;;;;;5074292;28;20032;-52
2022/03/08 00:45:26;;;;;;;12.20;8.23;;;-2.20;99.90;;;;;;5070522;28;20024;-52
2022/03/08 00:47:52;;;;;;;10.93;7.95;;;-2.20;99.90;;;;;;5090534;28;20032;-54
2022/03/08 00:50:20;;;;;;;11.10;7.93;;;-2.20;99.90;;;;;;5090534;28;20082;-54
2022/03/08 00:52:47;;;;;;;11.20;7.72;;;-2.30;99.90;;;;;;5089030;28;20108;-55
2022/03/08 00:55:15;;;;;;;9.40;6.55;;;-2.30;99.90;;;;;;5080188;28;20096;-54
2022/03/08 00:57:41;;;;;;;11.38;6.82;;;-2.30;99.90;;;;;;5054450;28;20055;-56
2022/03/08 01:00:10;;;;;;;10.68;6.45;;;-2.30;99.90;;;;;;5090866;28;20464;-50
2022/03/08 01:02:35;;;;;;;9.48;5.93;;;-2.30;99.90;;;;;;5070780;28;20032;-53
2022/03/08 01:05:01;;;;;;;6.85;5.10;;;-2.30;99.90;;;;;;5090409;28;20043;-55
2022/03/08 01:07:27;;;;;;;9.90;5.90;;;-2.30;99.90;;;;;;5090817;28;20024;-50
2022/03/08 01:09:53;;;;;;;8.90;5.35;;;-2.30;99.90;;;;;;5073532;28;20313;-54
2022/03/08 01:12:18;;;;;;;6.03;4.22;;;-2.30;99.90;;;;;;5072022;28;20034;-53
2022/03/08 01:14:44;;;;;;;8.02;4.80;;;-2.40;99.90;;;;;;5074927;28;20040;-52
2022/03/08 01:17:09;;;;;;;7.13;5.20;;;-2.40;99.90;;;;;;5070648;28;20024;-52
2022/03/08 01:19:35;;;;;;;7.22;4.68;;;-2.40;99.90;;;;;;5070774;28;20074;-53
2022/03/08 01:22:01;;;;;;;7.03;4.60;;;-2.40;99.90;;;;;;5084045;28;20562;-53
2022/03/08 01:24:28;;;;;;;7.47;4.45;;;-2.40;99.90;;;;;;5072827;28;20032;-50
2022/03/08 01:26:54;;;;;;;8.40;5.22;;;-2.40;99.90;;;;;;5090469;28;20081;-53
2022/03/08 01:29:19;;;;;;;8.05;4.88;;;-2.50;99.90;;;;;;5089770;28;20036;-53
2022/03/08 01:31:45;;;;;;;6.60;4.47;;;-2.50;99.90;;;;;;5088612;28;20545;-53
2022/03/08 01:34:10;;;;;;;7.05;4.57;;;-2.50;99.90;;;;;;5084419;28;20028;-56
2022/03/08 01:36:36;;;;;;;6.82;5.00;;;-2.50;99.90;;;;;;5070156;28;20389;-53
2022/03/08 01:39:03;;;;;;;6.43;4.25;;;-2.50;99.90;;;;;;5069988;28;20024;-53
2022/03/08 01:41:29;;;;;;;4.10;3.63;;;-2.50;99.90;;;;;;5069868;28;20040;-53
2022/03/08 01:43:54;;;;;;;8.15;5.65;;;-2.50;99.90;;;;;;5076998;28;20043;-52
2022/03/08 01:46:20;;;;;;;7.45;4.43;;;-2.50;99.90;;;;;;5088662;28;20036;-50
2022/03/08 01:48:46;;;;;;;7.10;4.45;;;-2.50;99.90;;;;;;5082979;28;20043;-51
2022/03/08 01:51:13;;;;;;;7.15;4.47;;;-2.50;99.90;;;;;;5089154;28;20032;-52
2022/03/08 01:53:40;;;;;;;6.43;4.97;;;-2.60;99.90;;;;;;5079545;28;20432;-52
2022/03/08 01:56:08;;;;;;;5.65;4.80;;;-2.60;99.90;;;;;;5079929;28;20077;-53
2022/03/08 01:58:34;;;;;;;7.45;4.38;;;-2.60;99.90;;;;;;5087579;28;20047;-52
2022/03/08 02:01:00;;;;;;;7.28;4.53;;;-2.60;99.90;;;;;;5087344;28;20043;-51
2022/03/08 02:03:25;;;;;;;7.13;4.75;;;-2.60;99.90;;;;;;5071535;28;20112;-55
2022/03/08 02:05:51;;;;;;;7.28;4.40;;;-2.70;99.90;;;;;;5069140;28;20032;-52
2022/03/08 02:08:17;;;;;;;6.45;4.35;;;-2.70;99.90;;;;;;5069374;28;20040;-51
2022/03/08 02:10:42;;;;;;;7.55;4.93;;;-2.70;99.90;;;;;;5069216;28;20064;-52
2022/03/08 02:13:08;;;;;;;6.80;4.80;;;-2.70;99.90;;;;;;5082032;28;20503;-51
2022/03/08 02:15:33;;;;;;;7.40;4.40;;;-2.80;99.90;;;;;;5089473;28;20035;-51
2022/03/08 02:18:00;;;;;;;6.28;4.45;;;-2.80;99.90;;;;;;5088001;28;20030;-52
2022/03/08 02:20:28;;;;;;;6.57;4.55;;;-2.80;99.90;;;;;;5089955;28;20107;-55
2022/03/08 02:22:54;;;;;;;6.07;4.38;;;-2.80;99.90;;;;;;5078783;28;20032;-55
2022/03/08 02:25:21;;;;;;;6.82;4.47;;;-2.80;99.90;;;;;;5070414;28;20024;-51
2022/03/08 02:27:50;;;;;;;5.07;4.32;;;-2.80;99.90;;;;;;5089094;28;20040;-54
2022/03/08 02:30:17;;;;;;;5.28;3.85;;;-2.90;99.90;;;;;;5088890;28;20035;-51
2022/03/08 02:32:44;;;;;;;4.85;4.38;;;-2.90;99.90;;;;;;5079378;28;20044;-51
2022/03/08 02:35:22;;;;;;;6.93;4.18;;;-2.90;99.90;;;;;;5070568;28;20158;-48
2022/03/08 02:37:54;;;;;;;8.95;4.60;;;-2.90;99.90;;;;;;5069378;28;20441;-55
2022/03/08 02:40:22;;;;;;;6.53;4.13;;;-2.90;99.90;;;;;;5069354;28;20109;-53
2022/03/08 02:42:48;;;;;;;7.50;4.22;;;-2.90;99.90;;;;;;5078213;28;20142;-54
2022/03/08 02:45:15;;;;;;;4.95;3.80;;;-3.00;99.90;;;;;;5061290;28;20052;-50
2022/03/08 02:47:40;;;;;;;6.18;4.22;;;-3.00;99.90;;;;;;5069234;28;20020;-53
2022/03/08 02:50:10;;;;;;;6.22;4.43;;;-3.00;99.90;;;;;;5064406;28;20044;-51
2022/03/08 02:52:36;;;;;;;6.72;3.78;;;-3.00;99.90;;;;;;5079978;28;20037;-51
2022/03/08 02:55:03;;;;;;;4.80;3.80;;;-3.00;99.90;;;;;;5068943;28;20028;-50
2022/03/08 02:57:29;;;;;;;6.82;3.72;;;-3.00;99.90;;;;;;5068661;28;20174;-50
2022/03/08 02:59:54;;;;;;;5.28;3.88;;;-3.10;99.90;;;;;;5087631;28;20028;-51
2022/03/08 03:02:20;;;;;;;5.10;4.07;;;-3.00;99.90;;;;;;5087513;28;20038;-49
2022/03/08 03:04:46;;;;;;;5.47;4.57;;;-3.10;99.90;;;;;;5072691;28;20703;-52
2022/03/08 03:07:13;;;;;;;6.18;4.20;;;-3.10;99.90;;;;;;5084687;28;20032;-53
2022/03/08 03:09:39;;;;;;;4.95;4.25;;;-3.10;99.90;;;;;;5082383;28;20377;-52
2022/03/08 03:12:05;;;;;;;5.78;4.47;;;-3.10;99.90;;;;;;5074551;28;20044;-51
2022/03/08 03:14:30;;;;;;;6.13;4.53;;;-3.10;99.90;;;;;;5091234;28;20036;-52
2022/03/08 03:16:56;;;;;;;5.95;3.95;;;-3.10;99.90;;;;;;5092118;28;20498;-52
2022/03/08 03:19:21;;;;;;;6.03;4.45;;;-3.10;99.90;;;;;;5092649;28;20461;-49
2022/03/08 03:21:47;;;;;;;6.57;4.22;;;-3.10;99.90;;;;;;5091866;28;20080;-52
2022/03/08 03:24:13;;;;;;;6.63;4.07;;;-3.20;99.90;;;;;;5073517;28;20510;-51
2022/03/08 03:26:38;;;;;;;9.20;4.40;;;-3.20;99.90;;;;;;5090734;28;20020;-49
2022/03/08 03:29:04;;;;;;;5.63;4.30;;;-3.20;99.90;;;;;;5075511;28;20040;-52
2022/03/08 03:31:29;;;;;;;7.93;4.60;;;-3.20;99.90;;;;;;5072527;28;20033;-51
2022/03/08 03:33:55;;;;;;;6.35;4.25;;;-3.20;99.90;;;;;;5074173;28;20031;-52
2022/03/08 03:36:20;;;;;;;5.95;4.07;;;-3.20;99.90;;;;;;5072423;28;20428;-54
2022/03/08 03:38:46;;;;;;;5.63;4.43;;;-3.20;99.90;;;;;;5054249;28;20105;-52
2022/03/08 03:41:12;;;;;;;6.75;4.28;;;-3.30;99.90;;;;;;5072159;28;20024;-48
2022/03/08 03:43:37;;;;;;;8.20;4.82;;;-3.30;99.90;;;;;;5084304;28;20085;-50
2022/03/08 03:46:05;;;;;;;7.00;5.40;;;-3.30;99.90;;;;;;5069011;28;20037;-49
2022/03/08 03:48:31;;;;;;;6.45;4.38;;;-3.30;99.90;;;;;;5063146;28;20032;-50
2022/03/08 03:50:57;;;;;;;5.85;4.47;;;-3.30;99.90;;;;;;5065050;28;20039;-49
2022/03/08 03:53:23;;;;;;;10.55;4.68;;;-3.30;99.90;;;;;;5083593;28;20029;-52
2022/03/08 03:55:49;;;;;;;6.53;4.35;;;-3.40;99.90;;;;;;5075487;28;20038;-51
2022/03/08 03:58:14;;;;;;;7.22;4.40;;;-3.40;99.90;;;;;;5071799;28;20055;-50
2022/03/08 04:00:40;;;;;;;6.55;5.15;;;-3.40;99.90;;;;;;5067594;28;20437;-51
2022/03/08 04:03:05;;;;;;;6.68;4.75;;;-3.40;99.90;;;;;;5081608;28;20031;-53
2022/03/08 04:05:31;;;;;;;7.63;5.18;;;-3.40;99.90;;;;;;5071477;28;20492;-53
2022/03/08 04:07:57;;;;;;;7.65;4.75;;;-3.50;99.90;;;;;;5072230;28;20033;-52
2022/03/08 04:10:22;;;;;;;9.18;5.25;;;-3.40;99.90;;;;;;5073436;28;20036;-50
2022/03/08 04:12:48;;;;;;;9.35;5.03;;;-3.50;99.90;;;;;;5084077;28;20400;-51
2022/03/08 04:15:14;;;;;;;7.72;5.15;;;-3.50;99.90;;;;;;5072475;28;20032;-52
2022/03/08 04:17:39;;;;;;;7.88;4.90;;;-3.50;99.90;;;;;;5071467;28;20044;-50
2022/03/08 04:20:07;;;;;;;6.65;4.30;;;-3.50;99.90;;;;;;5071444;28;20483;-48
2022/03/08 04:22:33;;;;;;;7.38;5.40;;;-3.50;99.90;;;;;;5075437;28;20032;-51
2022/03/08 04:24:59;;;;;;;5.85;4.47;;;-3.50;99.90;;;;;;5091261;28;20043;-49
2022/03/08 04:27:24;;;;;;;6.95;4.47;;;-3.50;99.90;;;;;;5077831;28;20040;-52
2022/03/08 04:29:50;;;;;;;8.50;5.05;;;-3.50;99.90;;;;;;5071303;28;20036;-51
2022/03/08 04:32:16;;;;;;;7.63;4.60;;;-3.50;99.90;;;;;;5072541;28;20446;-53
2022/03/08 04:34:42;;;;;;;5.88;4.65;;;-3.50;99.90;;;;;;5088811;28;20082;-51
2022/03/08 04:37:07;;;;;;;7.85;4.50;;;-3.60;99.90;;;;;;5090986;28;20043;-51
2022/03/08 04:39:34;;;;;;;6.40;4.22;;;-3.60;99.90;;;;;;5078626;28;20072;-52
2022/03/08 04:42:00;;;;;;;7.22;4.60;;;-3.60;99.90;;;;;;5072647;28;20075;-51
2022/03/08 04:44:25;;;;;;;8.32;4.57;;;-3.60;99.90;;;;;;5085024;28;20496;-52
2022/03/08 04:46:51;;;;;;;7.47;5.13;;;-3.60;99.90;;;;;;5071115;28;20119;-50
2022/03/08 04:49:16;;;;;;;6.82;5.07;;;-3.60;99.90;;;;;;5053916;28;20074;-51
2022/03/08 04:51:42;;;;;;;6.13;4.80;;;-3.60;99.90;;;;;;5070749;28;20039;-54
2022/03/08 04:54:08;;;;;;;6.10;4.47;;;-3.60;99.90;;;;;;5083101;28;20440;-51
2022/03/08 04:56:34;;;;;;;8.88;5.20;;;-3.60;99.90;;;;;;5077557;28;20043;-52
2022/03/08 04:58:59;;;;;;;7.03;4.90;;;-3.60;99.90;;;;;;5090837;28;20493;-49
2022/03/08 05:01:25;;;;;;;8.35;4.65;;;-3.70;99.90;;;;;;5090304;28;20027;-51
2022/03/08 05:03:51;;;;;;;6.25;4.45;;;-3.70;99.90;;;;;;5073524;28;20107;-49
2022/03/08 05:06:18;;;;;;;9.68;5.00;;;-3.70;99.90;;;;;;5070424;28;20028;-50
2022/03/08 05:08:43;;;;;;;7.30;4.82;;;-3.70;99.90;;;;;;5075862;28;20453;-53
2022/03/08 05:11:09;;;;;;;6.20;4.47;;;-3.70;99.90;;;;;;5090675;28;20039;-51
2022/03/08 05:13:35;;;;;;;7.97;5.32;;;-3.70;99.90;;;;;;5075889;28;20407;-51
2022/03/08 05:16:01;;;;;;;8.00;5.25;;;-3.70;99.90;;;;;;5082469;28;20028;-50
2022/03/08 05:18:26;;;;;;;6.72;4.72;;;-3.80;99.90;;;;;;5052226;28;20027;-55
2022/03/08 05:20:52;;;;;;;6.75;4.60;;;-3.70;99.90;;;;;;5070151;28;20039;-51
2022/03/08 05:23:18;;;;;;;5.18;4.72;;;-3.80;99.90;;;;;;5061618;28;20028;-48
2022/03/08 05:25:43;;;;;;;7.65;5.10;;;-3.80;99.90;;;;;;5079247;28;20512;-50
2022/03/08 05:28:09;;;;;;;6.93;4.93;;;-3.80;99.90;;;;;;5067456;28;20042;-50
2022/03/08 05:30:35;;;;;;;6.18;5.25;;;-3.80;99.90;;;;;;5089702;28;20028;-51
2022/03/08 05:33:00;;;;;;;6.00;4.78;;;-3.80;99.90;;;;;;5062687;28;20170;-50
2022/03/08 05:35:26;;;;;;;6.47;4.70;;;-3.80;99.90;;;;;;5070851;28;20150;-49
2022/03/08 05:37:52;;;;;;;7.78;5.15;;;-3.80;99.90;;;;;;5069788;28;20043;-48
2022/03/08 05:40:19;;;;;;;6.00;4.47;;;-3.80;99.90;;;;;;5069816;28;20037;-52
2022/03/08 05:42:44;;;;;;;6.75;4.82;;;-3.80;99.90;;;;;;5076727;28;20038;-51
2022/03/08 05:45:11;;;;;;;6.28;4.90;;;-3.80;99.90;;;;;;5082684;28;20020;-52
2022/03/08 05:47:38;;;;;;;6.47;4.63;;;-3.80;99.90;;;;;;5069859;28;20020;-51
2022/03/08 05:50:06;;;;;;;5.53;4.53;;;-3.80;99.90;;;;;;5069714;28;20032;-48
2022/03/08 05:52:31;;;;;;;7.57;5.35;;;-3.80;99.90;;;;;;5073138;28;20067;-53
2022/03/08 05:54:57;;;;;;;7.82;5.25;;;-3.80;99.90;;;;;;5089520;28;20071;-49
2022/03/08 05:57:23;;;;;;;6.20;4.82;;;-3.80;99.90;;;;;;5068139;28;20427;-51
2022/03/08 05:59:49;;;;;;;7.07;4.93;;;-3.80;99.90;;;;;;5069506;28;20029;-50
2022/03/08 06:02:16;;;;;;;7.32;5.20;;;-3.80;99.90;;;;;;5052280;28;20038;-50
2022/03/08 06:04:41;;;;;;;8.55;5.25;;;-3.80;99.90;;;;;;5069952;28;20474;-51
2022/03/08 06:07:07;;;;;;;8.48;4.63;;;-3.80;99.90;;;;;;5089839;28;20032;-52
2022/03/08 06:09:33;;;;;;;5.95;5.07;;;-3.80;99.90;;;;;;5088594;28;20416;-53
2022/03/08 06:11:58;;;;;;;7.00;5.13;;;-3.80;99.90;;;;;;5081431;28;20036;-51
2022/03/08 06:14:24;;;;;;;9.15;5.32;;;-3.80;99.90;;;;;;5085960;28;20455;-50
2022/03/08 06:16:50;;;;;;;9.27;5.30;;;-3.80;99.90;;;;;;5089411;28;20035;-49
2022/03/08 06:19:15;;;;;;;9.25;5.28;;;-3.80;99.90;;;;;;5089532;28;20608;-51
2022/03/08 06:21:41;;;;;;;9.98;5.43;;;-3.80;99.90;;;;;;5089266;28;20040;-51
2022/03/08 06:24:06;;;;;;;7.75;5.53;;;-3.80;99.90;;;;;;5055312;28;20040;-51
2022/03/08 06:26:32;;;;;;;8.30;5.00;;;-3.80;99.90;;;;;;5085620;28;20114;-50
2022/03/08 06:28:58;;;;;;;6.65;4.75;;;-3.80;99.90;;;;;;5073856;28;20480;-50
2022/03/08 06:31:23;;;;;;;6.68;4.38;;;-3.80;99.90;;;;;;5068726;28;20040;-52
2022/03/08 06:33:49;;;;;;;7.97;4.93;;;-3.70;99.90;;;;;;5080670;28;20131;-50
2022/03/08 06:36:14;;;;;;;9.15;5.05;;;-3.70;99.90;;;;;;5088388;28;20380;-53
2022/03/08 06:38:40;;;;;;;7.45;5.70;;;-3.70;99.90;;;;;;5060251;28;20412;-51
2022/03/08 06:41:06;;;;;;;8.18;5.53;;;-3.80;99.90;;;;;;5084317;28;20058;-52
2022/03/08 06:43:32;;;;;;;9.52;5.13;;;-3.70;99.90;;;;;;5053334;28;20032;-54
2022/03/08 06:45:57;;;;;;;8.10;5.18;;;-3.70;99.90;;;;;;5068037;28;20043;-51
2022/03/08 06:48:23;;;;;;;8.93;5.65;;;-3.70;99.90;;;;;;5076773;28;20036;-49
2022/03/08 06:50:49;;;;;;;8.07;6.03;;;-3.70;99.90;;;;;;5075738;28;20040;-49
2022/03/08 06:53:14;;;;;;;9.88;7.00;;;-3.70;99.90;;;;;;5088357;28;20024;-50
2022/03/08 06:55:40;;;;;;;9.07;6.03;;;-3.70;99.90;;;;;;5088606;28;20047;-52
2022/03/08 06:58:06;;;;;;;8.88;6.05;;;-3.60;99.90;;;;;;5080162;28;20020;-49
2022/03/08 07:00:31;;;;;;;12.70;7.18;;;-3.60;99.90;;;;;;5068664;28;20090;-53
2022/03/08 07:02:57;;;;;;;10.05;6.47;;;-3.50;99.90;;;;;;5068933;28;20033;-51
2022/03/08 07:05:23;;;;;;;11.30;7.38;;;-3.50;99.90;;;;;;5050961;28;20067;-51
2022/03/08 07:07:48;;;;;;;13.82;7.32;;;-3.40;99.90;;;;;;5060045;28;20020;-50
2022/03/08 07:10:14;;;;;;;10.27;7.05;;;-3.40;99.90;;;;;;5070506;28;20028;-49
2022/03/08 07:12:39;;;;;;;9.93;6.78;;;-3.30;99.90;;;;;;5088068;28;20063;-51
2022/03/08 07:15:06;;;;;;;10.23;7.05;;;-3.30;99.90;;;;;;5086890;28;20032;-52
2022/03/08 07:17:32;;;;;;;9.77;7.65;;;-3.20;99.90;;;;;;5085057;28;20116;-51
2022/03/08 07:19:58;;;;;;;8.85;7.53;;;-3.10;99.90;;;;;;5070129;28;20035;-55
2022/03/08 07:22:24;;;;;;;10.35;7.07;;;-3.10;99.90;;;;;;5069835;28;20041;-53
2022/03/08 07:24:49;;;;;;;8.75;6.95;;;-3.00;99.90;;;;;;5068577;28;20064;-52
2022/03/08 07:27:15;;;;;;;10.65;7.22;;;-2.90;99.90;;;;;;5079997;28;20061;-52
2022/03/08 07:29:42;;;;;;;9.70;7.28;;;-2.80;99.90;;;;;;5069416;28;20059;-52
2022/03/08 07:32:08;;;;;;;12.10;7.63;;;-2.70;99.90;;;;;;5080127;28;20029;-55
2022/03/08 07:34:33;;;;;;;11.30;7.10;;;-2.60;99.90;;;;;;5071407;28;20032;-53
2022/03/08 07:36:59;;;;;;;10.98;6.57;;;-2.50;99.90;;;;;;5068747;28;20099;-51
2022/03/08 07:39:25;;;;;;;10.27;7.68;;;-2.30;99.90;;;;;;5068392;28;20040;-51
2022/03/08 07:41:50;;;;;;;10.68;6.93;;;-2.20;99.90;;;;;;5069745;28;20035;-53
2022/03/08 07:44:16;;;;;;;8.20;6.32;;;-2.10;99.90;;;;;;5074108;28;20484;-50
2022/03/08 07:46:41;;;;;;;7.70;5.97;;;-1.90;99.90;;;;;;5089012;28;20428;-51
2022/03/08 07:49:07;;;;;;;7.57;5.53;;;-1.80;99.90;;;;;;5089358;28;20064;-52
2022/03/08 07:51:32;;;;;;;7.90;6.38;;;-1.70;99.90;;;;;;5076577;28;20039;-53
2022/03/08 07:53:59;;;;;;;7.45;5.32;;;-1.60;99.90;;;;;;5055089;28;20085;-51
2022/03/08 07:56:25;;;;;;;7.63;5.75;;;-1.40;99.90;;;;;;5058854;28;20021;-53
2022/03/08 07:58:52;;;;;;;9.77;5.78;;;-1.30;99.90;;;;;;5058912;28;20452;-49
2022/03/08 08:01:18;;;;;;;6.97;4.80;;;-1.10;99.90;;;;;;5071371;28;20020;-51
2022/03/08 08:03:43;;;;;;;7.80;5.03;;;-1.00;99.90;;;;;;5071338;28;20028;-50
2022/03/08 08:06:09;;;;;;;8.60;5.10;;;-0.90;99.90;;;;;;5071441;28;20530;-53
2022/03/08 08:08:35;;;;;;;8.65;5.47;;;-0.70;99.90;;;;;;5071472;28;20111;-52
2022/03/08 08:11:00;;;;;;;9.40;5.13;;;-0.60;99.90;;;;;;5071536;28;20035;-53
2022/03/08 08:13:26;;;;;;;4.88;4.25;;;-0.40;99.90;;;;;;5070974;28;20021;-51
2022/03/08 08:15:51;;;;;;;7.05;4.85;;;-0.20;99.90;;;;;;5071420;28;20535;-51
2022/03/08 08:18:17;;;;;;;5.13;4.63;;;-0.10;99.90;;;;;;5071500;28;20023;-49
2022/03/08 08:20:42;;;;;;;6.97;5.35;;;0.10;99.90;;;;;;5071651;28;20020;-53
2022/03/08 08:23:08;;;;;;;5.28;4.68;;;0.30;99.90;;;;;;5071262;28;20043;-55
2022/03/08 08:25:33;;;;;;;7.43;5.07;;;0.60;99.90;;;;;;5071450;28;20071;-53
2022/03/08 08:27:59;;;;;;;7.65;5.00;;;0.80;99.90;;;;;;5071357;28;20628;-54
2022/03/08 08:30:26;;;;;;;6.38;4.57;;;1.10;99.90;;;;;;5071016;28;20074;-50
2022/03/08 08:32:52;;;;;;;8.13;3.50;;;1.40;99.90;;;;;;5071278;28;20028;-54
2022/03/08 08:35:19;;;;;;;9.88;4.68;;;1.70;99.90;;;;;;5070689;28;20472;-53
2022/03/08 08:37:45;;;;;;;7.32;4.63;;;2.00;99.90;;;;;;5075655;28;20047;-51
2022/03/08 08:40:11;;;;;;;7.32;3.88;;;2.40;99.90;;;;;;5070834;28;20107;-51
2022/03/08 08:42:37;;;;;;;4.75;4.25;;;2.60;99.90;;;;;;5070572;28;20032;-53
2022/03/08 08:45:03;;;;;;;9.52;4.15;;;2.90;99.90;;;;;;5088135;28;20028;-49
2022/03/08 08:47:29;;;;;;;4.97;4.22;;;3.20;99.90;;;;;;5077575;28;20036;-53
2022/03/08 08:49:55;;;;;;;5.65;3.78;;;3.50;99.90;;;;;;5070955;28;20492;-53
2022/03/08 08:52:21;;;;;;;4.70;4.20;;;3.70;99.90;;;;;;5070518;28;20492;-52
2022/03/08 08:54:47;;;;;;;5.05;4.18;;;4.00;99.90;;;;;;5071013;28;20655;-53
2022/03/08 08:57:13;;;;;;;7.50;4.20;;;4.20;99.90;;;;;;5076528;22;20044;-51
2022/03/08 08:59:39;;;;;;;3.72;3.25;;;4.50;99.90;;;;;;5069434;28;20501;-52
2022/03/08 09:02:04;;;;;;;4.20;3.80;;;4.70;99.90;;;;;;5070767;28;20029;-53
2022/03/08 09:04:30;;;;;;;6.50;3.60;;;4.90;99.90;;;;;;5070677;28;20044;-54
2022/03/08 09:06:56;;;;;;;7.00;4.35;;;5.10;99.90;;;;;;5070791;28;20027;-55
2022/03/08 09:09:21;;;;;;;4.45;3.20;;;5.30;99.90;;;;;;5050546;28;20404;-52
2022/03/08 09:11:47;;;;;;;4.20;3.35;;;5.50;99.90;;;;;;5050885;28;20069;-52
2022/03/08 09:14:13;;;;;;;4.75;3.50;;;5.70;99.90;;;;;;5049138;28;20034;-51
2022/03/08 09:16:38;;;;;;;4.35;3.28;;;5.90;99.90;;;;;;5050151;28;20056;-50
2022/03/08 09:19:04;;;;;;;4.78;2.97;;;6.00;99.90;;;;;;5049787;28;20017;-51
2022/03/08 09:21:29;;;;;;;4.85;3.53;;;6.20;99.90;;;;;;5049287;28;20094;-52
2022/03/08 09:23:55;;;;;;;4.47;2.88;;;6.30;99.90;;;;;;5050277;28;20051;-51
2022/03/08 09:26:21;;;;;;;3.92;2.95;;;6.50;99.90;;;;;;5050235;28;20074;-51
2022/03/08 09:28:46;;;;;;;4.10;2.72;;;6.60;99.90;;;;;;5050278;28;20116;-52
2022/03/08 09:31:12;;;;;;;5.43;3.40;;;6.80;99.90;;;;;;5049721;28;20040;-51
2022/03/08 09:33:38;;;;;;;6.90;2.65;;;6.90;99.90;;;;;;5050159;28;20017;-52
2022/03/08 09:36:04;;;;;;;3.42;2.83;;;7.10;99.90;;;;;;5054578;28;20044;-50
2022/03/08 09:38:30;;;;;;;4.07;2.58;;;7.30;99.90;;;;;;5050425;28;20044;-52
2022/03/08 09:40:55;;;;;;;4.47;2.80;;;7.30;99.90;;;;;;5049776;28;20106;-54
2022/03/08 09:43:21;;;;;;;4.88;3.03;;;7.50;99.90;;;;;;5049776;28;20267;-52
2022/03/08 09:45:47;;;;;;;3.03;2.13;;;7.60;99.90;;;;;;5046748;28;20025;-51
2022/03/08 09:48:12;;;;;;;4.45;2.55;;;7.70;96.10;;;;;;5050095;28;20492;-50
2022/03/08 09:50:38;;;;;;;3.95;2.33;;;7.80;95.00;;;;;;5049372;28;20060;-51
2022/03/08 09:53:05;;;;;;;4.32;2.25;;;7.80;96.20;;;;;;5049769;28;20025;-52
2022/03/08 09:55:30;;;;;;;2.60;2.40;;;7.90;96.70;;;;;;5046684;28;20021;-55
2022/03/08 09:57:56;;;;;;;3.72;2.58;;;8.00;95.10;;;;;;5048401;28;20115;-52
2022/03/08 10:00:23;;;;;;;3.10;2.40;;;8.10;94.90;;;;;;5048113;28;20024;-53
2022/03/08 10:02:57;;;;;;;7.15;2.25;;;8.20;94.40;;;;;;5044595;28;20031;-50
2022/03/08 10:05:26;;;;;;;2.38;2.15;;;8.20;94.00;;;;;;5048588;28;20551;-54
2022/03/08 10:08:08;;;;;;;4.07;1.80;;;8.30;93.20;;;;;;5047911;28;20087;-52
2022/03/08 10:10:44;;;;;;;2.88;1.90;;;8.40;93.00;;;;;;5043338;28;20488;-52
2022/03/08 10:13:11;;;;;;;3.15;2.17;;;8.50;91.40;;;;;;5046469;28;20116;-52
2022/03/08 10:15:37;;;;;;;4.18;2.15;;;8.50;93.60;;;;;;5048096;28;20029;-52
2022/03/08 10:18:03;;;;;;;4.15;2.70;;;8.60;93.00;;;;;;5047987;28;20039;-54
2022/03/08 10:20:31;;;;;;;3.22;2.50;;;8.60;92.70;;;;;;5038039;28;20429;-53
2022/03/08 10:22:56;;;;;;;4.05;2.30;;;8.70;92.60;;;;;;5048046;28;20024;-53
2022/03/08 10:25:26;;;;;;;2.65;2.08;;;8.80;91.30;;;;;;5033639;28;20021;-53
2022/03/08 10:27:52;;;;;;;2.55;1.88;;;8.80;92.70;;;;;;5044719;28;20017;-52
2022/03/08 10:30:19;;;;;;;2.35;1.33;;;8.90;90.20;;;;;;5047959;28;20049;-52
2022/03/08 10:32:47;;;;;;;1.38;1.05;;;8.90;89.90;;;;;;5048178;28;20083;-51
2022/03/08 10:35:28;;;;;;;3.20;1.50;;;8.90;88.60;;;;;;5047663;28;20493;-54
2022/03/08 10:37:58;;;;;;;2.78;1.33;;;9.00;87.80;;;;;;5037080;28;20059;-54
2022/03/08 10:40:30;;;;;;;2.15;1.65;;;9.00;86.80;;;;;;5047670;28;20017;-54
2022/03/08 10:43:05;;;;;;;3.45;1.30;;;9.10;84.60;;;;;;5044228;28;20060;-52
2022/03/08 10:45:34;;;;;;;1.40;1.13;;;9.10;83.80;;;;;;5047711;28;20108;-53
2022/03/08 10:48:00;;;;;;;1.50;1.40;;;9.10;85.90;;;;;;5046771;28;20033;-53
2022/03/08 10:50:29;;;;;;;3.13;1.65;;;9.20;83.90;;;;;;5048014;28;20027;-52
2022/03/08 10:52:57;;;;;;;3.10;1.55;;;9.20;84.60;;;;;;5047423;28;20037;-52
2022/03/08 10:55:45;;;;;;;1.40;1.30;;;9.20;85.30;;;;;;5041296;28;20039;-50
2022/03/08 10:58:12;;;;;;;2.95;1.38;;;9.20;83.00;;;;;;5045230;28;20061;-52
2022/03/08 11:00:39;;;;;;;1.58;1.23;;;9.20;81.10;;;;;;5048229;28;20024;-53
2022/03/08 11:03:07;;;;;;;1.98;1.10;;;9.20;83.30;;;;;;5046666;28;20033;-52
2022/03/08 11:05:35;;;;;;;2.42;1.13;;;9.20;84.30;;;;;;5023362;28;20021;-53
2022/03/08 11:08:02;;;;;;;2.20;1.60;;;9.30;83.70;;;;;;5047447;28;20108;-52
2022/03/08 11:10:30;;;;;;;2.22;1.48;;;9.30;82.60;;;;;;5047281;28;20531;-50
2022/03/08 11:12:57;;;;;;;4.10;2.00;;;9.30;83.50;;;;;;5045203;28;20037;-53
2022/03/08 11:15:27;;;;;;;2.13;1.63;;;9.40;85.60;;;;;;5031207;28;20021;-51
2022/03/08 11:17:57;;;;;;;1.90;1.30;;;9.40;84.40;;;;;;5047132;28;20500;-50
2022/03/08 11:20:24;;;;;;;2.47;1.90;;;9.40;82.40;;;;;;5059349;28;20025;-55
2022/03/08 11:22:53;;;;;;;2.60;1.42;;;9.40;83.00;;;;;;5050570;28;20052;-52
2022/03/08 11:25:19;;;;;;;3.67;1.88;;;9.50;83.30;;;;;;5050896;28;20386;-56
2022/03/08 11:27:46;;;;;;;2.42;1.50;;;9.40;79.60;;;;;;5033236;28;20086;-52
2022/03/08 11:30:19;;;;;;;2.38;1.13;;;9.30;80.40;;;;;;5048753;28;20029;-52
2022/03/08 11:33:11;;;;;;;1.30;1.20;;;9.30;82.20;;;;;;5032690;28;20514;-53
2022/03/08 11:36:08;;;;;;;2.22;1.60;;;9.30;81.30;;;;;;5049182;28;20033;-51
2022/03/08 11:38:34;;;;;;;3.22;1.23;;;9.30;83.60;;;;;;5049396;28;20075;-52
2022/03/08 11:41:00;;;;;;;1.90;1.10;;;9.40;80.00;;;;;;5051006;28;20043;-52
2022/03/08 11:43:48;;;;;;;1.30;1.20;;;9.40;81.70;;;;;;5050434;28;20103;-54
2022/03/08 11:46:16;;;;;;;3.50;1.45;;;9.50;80.30;;;;;;5050237;28;20451;-54
2022/03/08 11:48:51;;;;;;;2.85;1.80;;;9.50;80.00;;;;;;5048779;28;20040;-54
2022/03/08 11:51:16;;;;;;;1.73;1.38;;;9.50;80.20;;;;;;5048156;28;20133;-54
2022/03/08 11:53:44;;;;;;;3.17;1.40;;;9.60;80.90;;;;;;5053411;28;20057;-53
2022/03/08 11:56:16;;;;;;;2.35;1.33;;;9.60;79.80;;;;;;5052612;28;20059;-53
2022/03/08 11:58:44;;;;;;;1.48;1.17;;;9.70;79.10;;;;;;5051983;28;20041;-52
2022/03/08 12:01:25;;;;;;;2.17;1.70;;;9.60;78.90;;;;;;5052511;28;20029;-55
2022/03/08 12:04:10;;;;;;;2.50;1.88;;;9.60;78.90;;;;;;5052145;28;20443;-50
2022/03/08 12:06:37;;;;;;;2.10;1.77;;;9.70;77.20;;;;;;5051830;28;20021;-52
2022/03/08 12:09:08;;;;;;;2.30;1.70;;;9.70;78.50;;;;;;5051347;28;20104;-52
2022/03/08 12:11:39;;;;;;;2.33;1.48;;;9.70;76.30;;;;;;5034160;28;20059;-55
2022/03/08 12:14:08;;;;;;;2.13;1.58;;;9.70;75.70;;;;;;5051370;28;20021;-53
2022/03/08 12:16:34;;;;;;;1.85;1.25;;;9.60;77.00;;;;;;5052130;28;20091;-55
2022/03/08 12:19:02;;;;;;;3.88;1.77;;;9.60;76.90;;;;;;5051850;28;20024;-52
2022/03/08 12:21:33;;;;;;;1.48;1.30;;;9.60;76.60;;;;;;5052452;28;20405;-54
2022/03/08 12:24:05;;;;;;;1.98;1.77;;;9.60;76.90;;;;;;5051691;28;20082;-54
2022/03/08 12:26:38;;;;;;;2.60;1.77;;;9.60;76.80;;;;;;5051866;28;20063;-53
2022/03/08 12:29:17;;;;;;;3.53;1.60;;;9.60;76.40;;;;;;5052041;28;20064;-53
2022/03/08 12:31:58;;;;;;;2.50;1.13;;;9.60;75.30;;;;;;5066484;28;20029;-52
2022/03/08 12:34:33;;;;;;;1.27;1.08;;;9.60;76.50;;;;;;5051735;28;20397;-55
2022/03/08 12:37:23;;;;;;;1.30;1.00;;;9.60;75.10;;;;;;5031722;28;20061;-54
2022/03/08 12:39:51;;;;;;;2.50;1.40;;;9.60;77.40;;;;;;5031349;28;20099;-53
2022/03/08 12:42:21;;;;;;;3.03;1.35;;;9.60;74.60;;;;;;5031273;28;20612;-52
2022/03/08 12:44:52;;;;;;;2.72;1.25;;;9.60;75.20;;;;;;5031712;28;20443;-52
2022/03/08 12:47:18;;;;;;;1.58;1.33;;;9.60;74.60;;;;;;5031658;28;20080;-52